createdAt,value
2022-09-26T00:02:21.233Z,10.48
2022-09-26T00:05:13.674Z,5.47
2022-09-26T00:08:05.844Z,4.55
2022-09-26T00:11:01.065Z,4.65
2022-09-26T00:14:03.396Z,6.93
2022-09-26T00:16:51.370Z,5.03
2022-09-26T00:19:43.271Z,5.90
2022-09-26T00:22:38.115Z,6.00
2022-09-26T00:25:32.338Z,10.95
2022-09-26T00:28:21.928Z,5.57
2022-09-26T00:31:12.142Z,6.20
2022-09-26T00:34:00.398Z,6.63
2022-09-26T00:36:47.699Z,6.38
2022-09-26T00:39:36.985Z,7.47
2022-09-26T00:42:25.538Z,6.03
2022-09-26T00:45:18.181Z,6.90
2022-09-26T00:48:13.279Z,8.52
2022-09-26T00:51:06.910Z,8.90
2022-09-26T00:53:56.132Z,10.07
2022-09-26T00:56:51.193Z,4.97
2022-09-26T00:59:47.578Z,5.93
2022-09-26T01:02:39.351Z,7.40
2022-09-26T01:05:27.987Z,8.68
2022-09-26T01:08:17.154Z,9.15
2022-09-26T01:11:16.670Z,7.15
2022-09-26T01:14:13.374Z,5.72
2022-09-26T01:17:01.269Z,5.93
2022-09-26T01:20:03.539Z,8.52
2022-09-26T01:23:38.095Z,5.72
2022-09-26T01:26:52.295Z,6.18
2022-09-26T01:30:06.126Z,6.05
2022-09-26T01:33:08.510Z,7.85
2022-09-26T01:36:11.549Z,5.97
2022-09-26T01:39:24.865Z,6.35
2022-09-26T01:42:25.063Z,6.43
2022-09-26T01:45:20.742Z,7.15
2022-09-26T01:48:18.705Z,7.93
2022-09-26T01:51:16.274Z,7.25
2022-09-26T01:54:12.860Z,6.50
2022-09-26T01:57:07.212Z,6.80
2022-09-26T02:00:10.360Z,5.65
2022-09-26T02:03:10.718Z,7.93
2022-09-26T02:06:05.768Z,7.70
2022-09-26T02:08:57.919Z,8.02
2022-09-26T02:11:53.645Z,9.00
2022-09-26T02:14:50.187Z,7.68
2022-09-26T02:17:46.814Z,6.85
2022-09-26T02:20:42.150Z,8.70
2022-09-26T02:23:30.030Z,9.07
2022-09-26T02:26:20.855Z,7.40
2022-09-26T02:29:08.993Z,8.35
2022-09-26T02:32:01.217Z,9.68
2022-09-26T02:34:50.514Z,10.43
2022-09-26T02:37:44.252Z,9.18
2022-09-26T02:40:44.446Z,8.35
2022-09-26T02:43:45.946Z,8.32
2022-09-26T02:46:51.831Z,7.90
2022-09-26T02:49:56.687Z,8.88
2022-09-26T02:53:00.181Z,10.18
2022-09-26T02:56:14.695Z,13.85
2022-09-26T02:59:17.093Z,9.60
2022-09-26T03:02:13.678Z,12.10
2022-09-26T03:05:10.349Z,10.25
2022-09-26T03:08:06.592Z,11.18
2022-09-26T03:10:57.359Z,12.23
2022-09-26T03:13:53.868Z,13.63
2022-09-26T03:16:46.462Z,10.30
2022-09-26T03:19:40.954Z,11.23
2022-09-26T03:22:36.805Z,13.35
2022-09-26T03:25:29.226Z,10.48
2022-09-26T03:28:23.560Z,11.68
2022-09-26T03:31:14.075Z,12.90
2022-09-26T03:34:15.412Z,16.08
2022-09-26T03:37:04.704Z,10.45
2022-09-26T03:40:00.334Z,11.63
2022-09-26T03:43:09.372Z,15.05
2022-09-26T03:46:08.752Z,13.35
2022-09-26T03:48:57.991Z,14.60
2022-09-26T03:51:46.206Z,16.27
2022-09-26T03:54:38.080Z,14.38
2022-09-26T03:57:25.562Z,15.23
2022-09-26T04:00:22.710Z,17.27
2022-09-26T04:03:10.712Z,14.00
2022-09-26T04:06:03.755Z,15.43
2022-09-26T04:08:58.045Z,15.07
2022-09-26T04:11:46.605Z,18.75
2022-09-26T04:14:34.683Z,14.00
2022-09-26T04:17:26.791Z,13.18
2022-09-26T04:20:19.429Z,12.48
2022-09-26T04:23:09.759Z,13.45
2022-09-26T04:26:10.608Z,15.75
2022-09-26T04:28:59.323Z,13.15
2022-09-26T04:32:11.402Z,11.57
2022-09-26T04:35:12.464Z,11.82
2022-09-26T04:38:05.511Z,12.75
2022-09-26T04:40:54.659Z,11.45
2022-09-26T04:43:44.522Z,11.40
2022-09-26T04:46:39.625Z,11.50
2022-09-26T04:49:27.391Z,12.30
2022-09-26T04:52:18.910Z,10.95
2022-09-26T04:55:08.707Z,10.15
2022-09-26T04:58:02.744Z,12.02
2022-09-26T05:00:52.741Z,12.73
2022-09-26T05:03:49.858Z,13.00
2022-09-26T05:06:39.438Z,11.02
2022-09-26T05:09:38.908Z,14.45
2022-09-26T05:12:30.908Z,12.15
2022-09-26T05:15:27.587Z,14.63
2022-09-26T05:18:18.946Z,12.15
2022-09-26T05:21:08.079Z,13.38
2022-09-26T05:24:14.633Z,10.15
2022-09-26T05:27:06.821Z,10.68
2022-09-26T05:29:57.371Z,12.05
2022-09-26T05:32:51.203Z,12.98
2022-09-26T05:35:56.179Z,11.32
2022-09-26T05:38:50.002Z,9.98
2022-09-26T05:41:46.729Z,10.45
2022-09-26T05:44:43.190Z,10.88
2022-09-26T05:47:39.098Z,12.55
2022-09-26T05:50:33.324Z,11.32
2022-09-26T05:53:24.277Z,12.10
2022-09-26T05:56:21.531Z,11.90
2022-09-26T05:59:39.577Z,11.93
2022-09-26T06:03:00.116Z,13.77
2022-09-26T06:06:02.940Z,19.27
2022-09-26T06:08:50.855Z,14.93
2022-09-26T06:14:32.336Z,16.58
2022-09-26T06:17:21.299Z,18.10
2022-09-26T06:20:09.690Z,20.73
2022-09-26T06:22:58.208Z,20.60
2022-09-26T06:25:45.893Z,19.58
2022-09-26T06:28:33.371Z,20.88
2022-09-26T06:31:22.127Z,17.92
2022-09-26T06:34:30.409Z,22.85
2022-09-26T06:37:17.626Z,20.90
2022-09-26T06:40:05.000Z,22.60
2022-09-26T06:42:52.315Z,20.70
2022-09-26T06:45:46.279Z,25.88
2022-09-26T06:48:53.498Z,27.52
2022-09-26T06:52:08.905Z,22.88
2022-09-26T06:55:11.103Z,22.73
2022-09-26T06:57:59.774Z,21.20
2022-09-26T07:01:02.909Z,23.30
2022-09-26T07:04:13.861Z,20.98
2022-09-26T07:07:11.866Z,23.15
2022-09-26T07:10:01.910Z,23.35
2022-09-26T07:13:05.428Z,25.40
2022-09-26T07:15:53.621Z,25.67
2022-09-26T07:19:05.039Z,23.23
2022-09-26T07:21:58.839Z,23.55
2022-09-26T07:24:52.098Z,23.38
2022-09-26T07:27:42.808Z,21.02
2022-09-26T07:30:33.953Z,24.10
2022-09-26T07:33:34.409Z,21.80
2022-09-26T07:36:27.524Z,22.00
2022-09-26T07:39:15.402Z,26.05
2022-09-26T07:42:04.502Z,18.40
2022-09-26T07:45:24.567Z,18.30
2022-09-26T07:48:16.386Z,18.52
2022-09-26T07:51:24.640Z,17.38
2022-09-26T07:54:12.962Z,16.95
2022-09-26T07:57:20.076Z,16.45
2022-09-26T08:00:41.153Z,17.80
2022-09-26T08:03:38.732Z,15.50
2022-09-26T08:06:29.309Z,20.33
2022-09-26T08:09:17.439Z,17.45
2022-09-26T08:12:27.437Z,16.45
2022-09-26T08:15:36.911Z,14.60
2022-09-26T08:18:24.971Z,18.13
2022-09-26T08:21:18.262Z,16.17
2022-09-26T08:27:21.769Z,12.63
2022-09-26T08:30:13.804Z,11.65
2022-09-26T08:33:02.836Z,10.07
2022-09-26T08:35:53.109Z,9.90
2022-09-26T08:38:57.316Z,8.43
2022-09-26T08:42:26.219Z,6.97
2022-09-26T08:46:01.331Z,7.32
2022-09-26T08:49:08.815Z,8.77
2022-09-26T08:52:07.129Z,10.32
2022-09-26T08:54:58.385Z,8.60
2022-09-26T08:57:50.089Z,11.07
2022-09-26T09:00:40.318Z,7.30
2022-09-26T09:03:35.948Z,7.57
2022-09-26T09:06:31.350Z,8.98
2022-09-26T09:09:19.199Z,7.65
2022-09-26T09:12:23.929Z,6.93
2022-09-26T09:15:39.971Z,8.07
2022-09-26T09:18:44.711Z,5.40
2022-09-26T09:21:52.514Z,8.18
2022-09-26T09:24:58.173Z,5.88
2022-09-26T09:28:02.502Z,7.68
2022-09-26T09:31:02.879Z,5.57
2022-09-26T09:34:08.051Z,5.40
2022-09-26T09:37:12.701Z,4.70
2022-09-26T09:40:33.333Z,4.93
2022-09-26T09:43:29.196Z,4.95
2022-09-26T09:46:29.363Z,5.00
2022-09-26T09:49:22.005Z,5.30
2022-09-26T09:52:27.597Z,3.92
2022-09-26T09:55:31.310Z,4.65
2022-09-26T09:58:38.279Z,4.88
2022-09-26T10:01:32.229Z,3.78
2022-09-26T10:04:37.600Z,4.32
2022-09-26T10:07:25.533Z,11.20
2022-09-26T10:10:42.799Z,4.50
2022-09-26T10:13:54.082Z,4.65
2022-09-26T10:17:16.061Z,4.07
2022-09-26T10:20:28.225Z,5.70
2022-09-26T10:23:24.104Z,4.75
2022-09-26T10:26:14.236Z,4.05
2022-09-26T10:29:05.563Z,4.18
2022-09-26T10:31:57.605Z,4.45
2022-09-26T10:35:05.719Z,6.18
2022-09-26T10:38:02.200Z,4.13
2022-09-26T10:40:55.530Z,5.60
2022-09-26T10:44:00.935Z,3.08
2022-09-26T10:47:13.507Z,3.15
2022-09-26T10:50:28.254Z,3.55
2022-09-26T10:53:26.110Z,3.72
2022-09-26T10:56:27.905Z,4.40
2022-09-26T10:59:20.666Z,2.70
2022-09-26T11:02:20.193Z,3.67
2022-09-26T11:05:23.385Z,3.38
2022-09-26T11:08:29.366Z,6.30
2022-09-26T11:11:38.426Z,3.38
2022-09-26T11:14:35.063Z,3.60
2022-09-26T11:17:45.549Z,5.72
2022-09-26T11:20:45.918Z,4.22
2022-09-26T11:23:40.901Z,5.22
2022-09-26T11:26:40.775Z,4.60
2022-09-26T11:29:44.182Z,3.42
2022-09-26T11:32:41.303Z,3.60
2022-09-26T11:36:06.603Z,4.43
2022-09-26T11:38:59.692Z,5.55
2022-09-26T11:42:06.597Z,4.05
2022-09-26T11:45:01.225Z,3.50
2022-09-26T11:48:28.939Z,2.60
2022-09-26T11:51:52.625Z,2.60
2022-09-26T11:54:58.899Z,3.00
2022-09-26T11:57:58.658Z,2.78
2022-09-26T12:01:01.243Z,2.58
2022-09-26T12:04:06.554Z,2.77
2022-09-26T12:07:02.649Z,3.50
2022-09-26T12:10:06.141Z,4.32
2022-09-26T12:13:12.186Z,3.65
2022-09-26T12:16:08.027Z,2.72
2022-09-26T12:19:05.673Z,4.72
2022-09-26T12:22:17.672Z,8.80
2022-09-26T12:25:37.265Z,4.28
2022-09-26T12:28:45.482Z,4.43
2022-09-26T12:31:51.161Z,3.80
2022-09-26T12:34:56.615Z,5.25
2022-09-26T12:38:02.974Z,5.15
2022-09-26T12:41:03.111Z,4.40
2022-09-26T12:44:08.949Z,3.90
2022-09-26T12:47:13.419Z,2.47
2022-09-26T12:50:17.979Z,3.95
2022-09-26T12:53:26.197Z,3.97
2022-09-26T12:56:23.799Z,3.83
2022-09-26T12:59:26.399Z,2.63
2022-09-26T13:02:38.769Z,2.97
2022-09-26T13:05:52.271Z,8.07
2022-09-26T13:08:38.954Z,3.50
2022-09-26T13:11:32.689Z,4.50
2022-09-26T13:14:35.314Z,3.35
2022-09-26T13:17:26.317Z,3.55
2022-09-26T13:20:19.026Z,4.55
2022-09-26T13:23:12.108Z,3.92
2022-09-26T13:26:06.960Z,4.35
2022-09-26T13:29:17.130Z,3.08
2022-09-26T13:32:23.010Z,6.97
2022-09-26T13:35:22.844Z,3.08
2022-09-26T13:38:30.841Z,3.05
2022-09-26T13:41:30.431Z,5.43
2022-09-26T13:44:28.922Z,4.90
2022-09-26T13:47:27.571Z,4.53
2022-09-26T13:50:25.251Z,2.60
2022-09-26T13:53:21.789Z,3.00
2022-09-26T13:56:39.064Z,2.28
2022-09-26T13:59:28.463Z,3.38
2022-09-26T14:02:21.337Z,4.65
2022-09-26T14:05:38.650Z,3.30
2022-09-26T14:08:43.506Z,2.42
2022-09-26T14:11:46.427Z,4.47
2022-09-26T14:14:45.379Z,2.40
2022-09-26T14:18:02.739Z,3.30
2022-09-26T14:21:05.715Z,4.90
2022-09-26T14:24:28.594Z,2.60
2022-09-26T14:27:25.293Z,2.27
2022-09-26T14:30:30.722Z,2.13
2022-09-26T14:33:24.651Z,2.30
2022-09-26T14:36:27.324Z,2.35
2022-09-26T14:39:33.527Z,4.32
2022-09-26T14:42:28.906Z,2.88
2022-09-26T14:45:23.554Z,3.33
2022-09-26T14:48:30.123Z,2.55
2022-09-26T14:51:31.148Z,3.38
2022-09-26T14:54:32.047Z,1.75
2022-09-26T14:57:28.585Z,2.80
2022-09-26T15:00:38.198Z,1.60
2022-09-26T15:03:28.770Z,2.97
2022-09-26T15:06:19.184Z,2.55
2022-09-26T15:09:16.710Z,2.53
2022-09-26T15:12:18.235Z,2.67
2022-09-26T15:15:22.036Z,4.35
2022-09-26T15:21:12.905Z,2.50
2022-09-26T15:24:04.725Z,4.20
2022-09-26T15:26:55.765Z,2.67
2022-09-26T15:29:50.186Z,2.72
2022-09-26T15:32:43.580Z,4.85
2022-09-26T15:35:31.758Z,1.95
2022-09-26T15:38:19.730Z,2.55
2022-09-26T15:41:07.039Z,2.40
2022-09-26T15:44:01.327Z,2.42
2022-09-26T15:46:51.028Z,3.28
2022-09-26T15:49:41.292Z,2.20
2022-09-26T15:52:29.076Z,1.70
2022-09-26T15:55:20.509Z,4.10
2022-09-26T15:58:12.353Z,3.20
2022-09-26T16:01:03.061Z,2.40
2022-09-26T16:03:58.569Z,2.40
2022-09-26T16:07:07.449Z,2.20
2022-09-26T16:09:56.456Z,4.43
2022-09-26T16:12:44.248Z,2.55
2022-09-26T16:15:34.438Z,3.30
2022-09-26T16:18:28.329Z,2.95
2022-09-26T16:21:20.901Z,6.78
2022-09-26T16:24:36.092Z,5.50
2022-09-26T16:27:26.243Z,5.03
2022-09-26T16:30:38.382Z,4.07
2022-09-26T16:33:34.505Z,4.93
2022-09-26T16:36:25.320Z,7.35
2022-09-26T16:39:22.405Z,4.35
2022-09-26T16:42:19.687Z,5.13
2022-09-26T16:45:07.978Z,5.35
2022-09-26T16:47:56.999Z,3.78
2022-09-26T16:50:47.008Z,5.60
2022-09-26T16:53:34.257Z,4.40
2022-09-26T16:56:27.654Z,5.20
2022-09-26T17:02:14.910Z,3.60
2022-09-26T17:05:07.146Z,5.85
2022-09-26T17:07:58.753Z,5.40
2022-09-26T17:10:47.212Z,4.40
2022-09-26T17:13:37.893Z,4.18
2022-09-26T17:16:25.495Z,4.18
2022-09-26T17:19:17.905Z,5.50
2022-09-26T17:22:06.376Z,11.23
2022-09-26T17:24:56.366Z,5.75
2022-09-26T17:27:58.980Z,3.47
2022-09-26T17:30:46.471Z,3.45
2022-09-26T17:33:35.137Z,3.80
2022-09-26T17:36:28.279Z,6.72
2022-09-26T17:39:29.220Z,5.05
2022-09-26T17:42:23.198Z,5.93
2022-09-26T17:45:13.311Z,5.80
2022-09-26T17:48:07.596Z,5.50
2022-09-26T17:51:00.970Z,5.15
2022-09-26T17:53:52.843Z,7.05
2022-09-26T17:56:45.669Z,3.55
2022-09-26T17:59:35.429Z,4.10
2022-09-26T18:02:33.235Z,3.30
2022-09-26T18:05:27.356Z,3.85
2022-09-26T18:08:25.375Z,4.82
2022-09-26T18:11:18.147Z,4.25
2022-09-26T18:14:08.365Z,4.47
2022-09-26T18:16:59.966Z,4.80
2022-09-26T18:19:50.717Z,4.63
2022-09-26T18:22:43.719Z,3.08
2022-09-26T18:25:31.783Z,4.35
2022-09-26T18:28:23.384Z,6.38
2022-09-26T18:31:17.441Z,5.07
2022-09-26T18:34:12.178Z,3.45
2022-09-26T18:37:03.883Z,3.85
2022-09-26T18:39:55.119Z,3.38
2022-09-26T18:42:47.185Z,3.97
2022-09-26T18:45:36.851Z,4.00
2022-09-26T18:48:26.702Z,3.58
2022-09-26T18:51:20.925Z,4.40
2022-09-26T18:54:14.885Z,5.88
2022-09-26T18:57:18.697Z,6.70
2022-09-26T19:00:05.613Z,5.47
2022-09-26T19:02:52.699Z,5.60
2022-09-26T19:05:38.995Z,5.45
2022-09-26T19:08:36.740Z,7.60
2022-09-26T19:11:30.185Z,5.05
2022-09-26T19:14:24.218Z,3.45
2022-09-26T19:17:13.579Z,5.50
2022-09-26T19:20:04.795Z,5.63
2022-09-26T19:22:58.604Z,2.97
2022-09-26T19:25:53.335Z,4.05
2022-09-26T19:28:43.761Z,4.07
2022-09-26T19:31:35.354Z,3.67
2022-09-26T19:34:27.254Z,6.80
2022-09-26T19:37:18.606Z,6.07
2022-09-26T19:40:14.107Z,6.25
2022-09-26T19:43:05.962Z,5.75
2022-09-26T19:45:56.075Z,3.38
2022-09-26T19:48:46.527Z,4.50
2022-09-26T19:51:39.753Z,3.78
2022-09-26T19:54:26.922Z,4.00
2022-09-26T19:57:22.645Z,3.90
2022-09-26T20:00:15.541Z,4.38
2022-09-26T20:03:03.820Z,5.32
2022-09-26T20:05:51.826Z,5.20
2022-09-26T20:08:43.584Z,3.17
2022-09-26T20:11:31.001Z,3.60
2022-09-26T20:14:29.879Z,4.65
2022-09-26T20:17:25.582Z,3.88
2022-09-26T20:20:17.942Z,3.15
2022-09-26T20:23:06.384Z,5.00
2022-09-26T20:25:58.062Z,5.35
2022-09-26T20:28:48.891Z,3.28
2022-09-26T20:31:36.905Z,3.75
2022-09-26T20:34:30.453Z,3.90
2022-09-26T20:40:16.816Z,3.22
2022-09-26T20:43:11.736Z,3.22
2022-09-26T20:46:03.903Z,4.80
2022-09-26T20:48:52.688Z,3.87
2022-09-26T20:51:48.047Z,3.67
2022-09-26T20:54:35.610Z,3.92
2022-09-26T20:57:26.324Z,3.90
2022-09-26T21:00:17.037Z,5.22
2022-09-26T21:03:07.355Z,5.38
2022-09-26T21:05:58.078Z,2.80
2022-09-26T21:08:49.111Z,4.35
2022-09-26T21:11:43.088Z,4.03
2022-09-26T21:14:33.617Z,6.00
2022-09-26T21:17:25.931Z,3.80
2022-09-26T21:20:17.498Z,3.38
2022-09-26T21:23:24.920Z,4.68
2022-09-26T21:26:19.294Z,3.17
2022-09-26T21:29:16.003Z,3.17
2022-09-26T21:32:08.173Z,4.63
2022-09-26T21:35:04.487Z,6.32
2022-09-26T21:37:54.332Z,2.95
2022-09-26T21:40:48.385Z,4.28
2022-09-26T21:43:41.746Z,3.60
2022-09-26T21:46:29.221Z,2.80
2022-09-26T21:49:20.269Z,5.32
2022-09-26T21:52:22.291Z,5.65
2022-09-26T21:55:20.670Z,3.75
2022-09-26T21:58:13.217Z,3.35
2022-09-26T22:01:05.208Z,4.03
2022-09-26T22:03:54.622Z,3.67
2022-09-26T22:06:43.194Z,7.07
2022-09-26T22:09:33.110Z,3.53
2022-09-26T22:12:20.242Z,3.15
2022-09-26T22:15:10.284Z,3.65
2022-09-26T22:18:06.192Z,3.25
2022-09-26T22:20:58.224Z,5.72
2022-09-26T22:23:51.383Z,3.72
2022-09-26T22:26:47.289Z,7.13
2022-09-26T22:29:36.952Z,4.78
2022-09-26T22:32:26.564Z,5.07
2022-09-26T22:35:16.217Z,4.07
2022-09-26T22:38:03.731Z,4.25
2022-09-26T22:40:59.398Z,3.42
2022-09-26T22:43:46.848Z,5.82
2022-09-26T22:46:38.402Z,3.50
2022-09-26T22:49:26.237Z,5.20
2022-09-26T22:52:15.464Z,2.95
2022-09-26T22:55:10.470Z,3.42
2022-09-26T22:57:57.804Z,5.65
2022-09-26T23:00:45.515Z,2.80
2022-09-26T23:03:33.531Z,4.10
2022-09-26T23:06:24.054Z,2.55
2022-09-26T23:09:14.304Z,3.58
2022-09-26T23:12:10.583Z,2.90
2022-09-26T23:15:08.513Z,5.13
2022-09-26T23:17:57.762Z,3.35
2022-09-26T23:20:47.887Z,3.25
2022-09-26T23:23:41.966Z,3.75
2022-09-26T23:26:35.683Z,2.95
2022-09-26T23:29:28.345Z,2.67
2022-09-26T23:32:18.366Z,5.25
2022-09-26T23:35:14.935Z,2.22
2022-09-26T23:38:05.298Z,4.00
2022-09-26T23:40:54.501Z,2.60
2022-09-26T23:43:53.613Z,3.35
2022-09-26T23:46:41.404Z,5.50
2022-09-26T23:49:36.579Z,3.97
2022-09-26T23:52:27.091Z,4.03
2022-09-26T23:55:19.609Z,5.70
2022-09-26T23:58:10.657Z,6.53
